Time;durP1;ratioP1;P1;durP2;ratioP2;P2;SDS_P1;SDS_P2;PMS_P1;PMS_P2;Temp;Humidity;BMP_temperature;BMP_pressure;BME280_temperature;BME280_humidity;BME280_pressure;Samples;Min_cycle;Max_cycle;Signal;HPM_P1;HPM_P2
2022/06/29 00:00:02;;;;;;;7.60;2.67;;;17.60;99.90;;;;;;5098227;28;20044;-71
2022/06/29 00:02:28;;;;;;;10.83;2.50;;;17.60;99.90;;;;;;5116197;28;20043;-70
2022/06/29 00:04:53;;;;;;;6.23;2.37;;;17.60;99.90;;;;;;5115774;28;20043;-69
2022/06/29 00:07:19;;;;;;;6.70;2.70;;;17.60;99.90;;;;;;5098091;28;20164;-70
2022/06/29 00:09:45;;;;;;;6.30;2.53;;;17.60;99.90;;;;;;5116103;28;20053;-70
2022/06/29 00:12:11;;;;;;;6.60;2.43;;;17.60;99.90;;;;;;5115809;28;20043;-70
2022/06/29 00:14:41;;;;;;;7.53;2.67;;;17.60;99.90;;;;;;5097904;28;20089;-70
2022/06/29 00:17:12;;;;;;;6.13;2.43;;;17.50;99.90;;;;;;5098048;28;20104;-70
2022/06/29 00:19:38;;;;;;;8.93;3.13;;;17.50;99.90;;;;;;5115979;28;20051;-70
2022/06/29 00:22:05;;;;;;;7.10;2.70;;;17.50;99.90;;;;;;5115783;28;20100;-70
2022/06/29 00:24:31;;;;;;;8.17;2.70;;;17.50;99.90;;;;;;5116227;28;20047;-70
2022/06/29 00:26:58;;;;;;;8.87;3.47;;;17.40;99.90;;;;;;5115969;28;20055;-70
2022/06/29 00:29:23;;;;;;;7.87;2.47;;;17.40;99.90;;;;;;5115603;28;20047;-70
2022/06/29 00:31:49;;;;;;;7.53;2.70;;;17.40;99.90;;;;;;5115697;28;20104;-70
2022/06/29 00:34:15;;;;;;;5.97;2.57;;;17.40;99.90;;;;;;5115487;28;20055;-70
2022/06/29 00:36:41;;;;;;;7.20;2.63;;;17.40;99.90;;;;;;5115690;28;20040;-70
2022/06/29 00:39:06;;;;;;;10.00;2.87;;;17.30;99.90;;;;;;5115354;28;20055;-70
2022/06/29 00:41:38;;;;;;;6.73;2.77;;;17.30;99.90;;;;;;5080730;28;20047;-69
2022/06/29 00:44:04;;;;;;;6.70;3.10;;;17.30;99.90;;;;;;5097513;28;20036;-70
2022/06/29 00:46:29;;;;;;;7.63;2.70;;;17.20;99.90;;;;;;5115546;28;20093;-69
2022/06/29 00:48:55;;;;;;;5.77;2.40;;;17.20;99.90;;;;;;5097156;28;20055;-70
2022/06/29 00:51:22;;;;;;;6.87;2.20;;;17.20;99.90;;;;;;5115266;28;20043;-70
2022/06/29 00:53:50;;;;;;;12.13;2.87;;;17.20;99.90;;;;;;5115227;28;20078;-70
2022/06/29 00:56:17;;;;;;;5.73;2.83;;;17.10;99.90;;;;;;5115179;28;20411;-70
2022/06/29 00:58:46;;;;;;;9.17;2.77;;;17.10;99.90;;;;;;5115454;28;20123;-70
2022/06/29 01:01:13;;;;;;;5.93;2.23;;;17.10;99.90;;;;;;5097080;28;20126;-70
2022/06/29 01:03:39;;;;;;;8.43;2.53;;;17.10;99.90;;;;;;5114834;28;20566;-70
2022/06/29 01:06:05;;;;;;;7.10;2.70;;;17.00;99.90;;;;;;5115039;28;20332;-70
2022/06/29 01:08:32;;;;;;;5.93;2.40;;;17.00;99.90;;;;;;5114823;28;20075;-70
2022/06/29 01:10:57;;;;;;;8.97;2.70;;;17.00;99.90;;;;;;5114812;28;20394;-70
2022/06/29 01:13:23;;;;;;;7.30;2.33;;;17.00;99.90;;;;;;5114689;28;20127;-70
2022/06/29 01:15:49;;;;;;;7.40;3.10;;;17.00;99.90;;;;;;5095816;28;20130;-70
2022/06/29 01:18:15;;;;;;;6.57;2.67;;;16.90;99.90;;;;;;5114577;28;20317;-70
2022/06/29 01:20:40;;;;;;;6.03;2.97;;;16.90;99.90;;;;;;5096819;28;20044;-70
2022/06/29 01:23:06;;;;;;;7.37;3.37;;;16.90;99.90;;;;;;5114690;28;20475;-70
2022/06/29 01:25:32;;;;;;;5.60;2.43;;;16.80;99.90;;;;;;5114496;28;20062;-70
2022/06/29 01:27:58;;;;;;;7.77;2.60;;;16.80;99.90;;;;;;5114749;28;20502;-70
2022/06/29 01:30:24;;;;;;;8.57;3.00;;;16.80;99.90;;;;;;5096360;28;20138;-70
2022/06/29 01:32:50;;;;;;;5.40;2.63;;;16.80;99.90;;;;;;5114711;28;20563;-70
2022/06/29 01:35:22;;;;;;;10.27;3.20;;;16.80;99.90;;;;;;5096124;28;20168;-70
2022/06/29 01:37:48;;;;;;;5.77;2.53;;;16.70;99.90;;;;;;5114699;28;20047;-70
2022/06/29 01:40:14;;;;;;;8.70;2.80;;;16.70;99.90;;;;;;5114249;28;20281;-70
2022/06/29 01:42:40;;;;;;;7.00;2.40;;;16.70;99.90;;;;;;5114424;28;20322;-70
2022/06/29 01:45:06;;;;;;;6.27;3.10;;;16.70;99.90;;;;;;5114271;28;20043;-70
2022/06/29 01:47:32;;;;;;;5.43;2.77;;;16.70;99.90;;;;;;5095446;28;21068;-70
2022/06/29 01:49:58;;;;;;;5.27;2.53;;;16.60;99.90;;;;;;5114222;28;20355;-70
2022/06/29 01:52:23;;;;;;;7.23;3.13;;;16.60;99.90;;;;;;5113870;28;20044;-70
2022/06/29 01:54:49;;;;;;;6.83;2.80;;;16.60;99.90;;;;;;5114294;28;20122;-70
2022/06/29 01:57:15;;;;;;;5.60;2.50;;;16.60;99.90;;;;;;5114044;28;20043;-70
2022/06/29 01:59:41;;;;;;;7.47;2.60;;;16.60;99.90;;;;;;5079002;28;20079;-70
2022/06/29 02:02:07;;;;;;;7.47;3.00;;;16.60;99.90;;;;;;5095997;28;20130;-70
2022/06/29 02:04:33;;;;;;;6.43;2.77;;;16.60;99.90;;;;;;5113772;28;20118;-70
2022/06/29 02:06:59;;;;;;;5.70;2.73;;;16.70;99.90;;;;;;5113897;28;20356;-70
2022/06/29 02:09:25;;;;;;;5.60;2.77;;;16.70;99.90;;;;;;5113698;28;20052;-70
2022/06/29 02:11:51;;;;;;;5.23;3.00;;;16.70;99.90;;;;;;5113940;28;20084;-70
2022/06/29 02:14:16;;;;;;;5.20;2.70;;;16.70;99.90;;;;;;5095558;28;20484;-71
2022/06/29 02:16:42;;;;;;;7.93;3.13;;;16.70;99.90;;;;;;5114116;28;20059;-70
2022/06/29 02:19:08;;;;;;;5.27;2.60;;;16.70;99.90;;;;;;5095728;28;20391;-70
2022/06/29 02:21:34;;;;;;;6.27;2.80;;;16.70;99.90;;;;;;5113504;28;20131;-70
2022/06/29 02:23:59;;;;;;;7.10;2.90;;;16.70;99.90;;;;;;5095815;28;20047;-70
2022/06/29 02:26:25;;;;;;;6.63;2.70;;;16.70;99.90;;;;;;5113202;28;20040;-70
2022/06/29 02:28:51;;;;;;;8.40;3.07;;;16.70;99.90;;;;;;5113988;28;20050;-70
2022/06/29 02:36:45;;;;;;;6.03;3.70;;;16.70;99.90;;;;;;5113816;28;20274;-70
2022/06/29 02:39:11;;;;;;;6.73;3.10;;;16.80;99.90;;;;;;5113547;28;20364;-70
2022/06/29 02:41:36;;;;;;;8.23;3.17;;;16.80;99.90;;;;;;5113319;28;20048;-70
2022/06/29 02:44:02;;;;;;;6.37;2.83;;;16.80;99.90;;;;;;5095042;28;20435;-70
2022/06/29 02:46:28;;;;;;;7.03;2.77;;;16.80;99.90;;;;;;5095291;28;20051;-70
2022/06/29 02:48:54;;;;;;;7.10;3.87;;;16.80;99.90;;;;;;5113198;28;20125;-70
2022/06/29 02:51:19;;;;;;;5.30;3.23;;;16.70;99.90;;;;;;5113296;28;20051;-71
2022/06/29 02:53:45;;;;;;;6.97;3.23;;;16.70;99.90;;;;;;5095196;28;20097;-70
2022/06/29 02:56:11;;;;;;;7.33;3.30;;;16.70;99.90;;;;;;5113366;28;20453;-70
2022/06/29 02:58:36;;;;;;;8.63;3.23;;;16.70;99.90;;;;;;5112793;28;20051;-70
2022/06/29 03:01:02;;;;;;;7.40;2.70;;;16.70;99.90;;;;;;5113329;28;20093;-70
2022/06/29 03:03:28;;;;;;;6.07;3.00;;;16.70;99.90;;;;;;5113089;28;20118;-70
2022/06/29 03:05:53;;;;;;;5.57;2.50;;;16.70;99.90;;;;;;5113326;28;20476;-70
2022/06/29 03:08:19;;;;;;;6.80;2.90;;;16.70;99.90;;;;;;5113379;28;20044;-70
2022/06/29 03:10:45;;;;;;;5.90;3.03;;;16.70;99.90;;;;;;5113063;28;20050;-70
2022/06/29 03:13:10;;;;;;;7.93;3.50;;;16.70;99.90;;;;;;5078261;28;20544;-70
2022/06/29 03:15:36;;;;;;;10.50;3.17;;;16.70;99.90;;;;;;5112905;28;20450;-70
2022/06/29 03:18:02;;;;;;;5.27;2.80;;;16.70;99.90;;;;;;5094904;28;20097;-70
2022/06/29 03:20:28;;;;;;;6.47;3.43;;;16.70;99.90;;;;;;5112635;28;20123;-70
2022/06/29 03:22:53;;;;;;;7.67;3.10;;;16.70;99.90;;;;;;5113236;28;20082;-70
2022/06/29 03:25:19;;;;;;;7.50;3.53;;;16.70;99.90;;;;;;5095224;28;20475;-70
2022/06/29 03:27:45;;;;;;;7.43;3.40;;;16.60;99.90;;;;;;5094523;28;20372;-70
2022/06/29 03:30:12;;;;;;;7.27;3.10;;;16.60;99.90;;;;;;5113101;28;20047;-70
2022/06/29 03:32:38;;;;;;;8.47;3.40;;;16.60;99.90;;;;;;5112738;28;20043;-70
2022/06/29 03:35:05;;;;;;;6.27;3.00;;;16.60;99.90;;;;;;5112936;28;20278;-70
2022/06/29 03:37:30;;;;;;;7.00;3.70;;;16.60;99.90;;;;;;5112512;28;20277;-70
2022/06/29 03:39:56;;;;;;;6.57;3.33;;;16.60;99.90;;;;;;5116495;28;20289;-70
2022/06/29 03:42:22;;;;;;;6.20;3.37;;;16.60;99.90;;;;;;5116715;28;20043;-70
2022/06/29 03:44:48;;;;;;;5.70;3.63;;;16.50;99.90;;;;;;5116217;28;20546;-70
2022/06/29 03:47:14;;;;;;;6.13;3.20;;;16.50;99.90;;;;;;5116689;28;20369;-70
2022/06/29 03:49:40;;;;;;;6.00;3.60;;;16.50;99.90;;;;;;5116434;28;20190;-70
2022/06/29 03:52:06;;;;;;;8.10;3.77;;;16.50;99.90;;;;;;5116597;28;20109;-70
2022/06/29 03:54:32;;;;;;;8.07;3.60;;;16.50;99.90;;;;;;5116329;28;20047;-70
2022/06/29 03:56:58;;;;;;;6.40;3.50;;;16.50;99.90;;;;;;5116500;28;20040;-70
2022/06/29 03:59:23;;;;;;;7.53;3.03;;;16.50;99.90;;;;;;5116380;28;20617;-69
2022/06/29 04:01:50;;;;;;;8.07;3.33;;;16.50;99.90;;;;;;5116428;28;20284;-70
2022/06/29 04:04:16;;;;;;;6.77;3.13;;;16.50;99.90;;;;;;5116286;28;20483;-70
2022/06/29 04:06:42;;;;;;;7.30;3.47;;;16.50;99.90;;;;;;5116097;28;20285;-70
2022/06/29 04:09:08;;;;;;;8.73;3.40;;;16.60;99.90;;;;;;5116172;28;20322;-69
2022/06/29 04:11:49;;;;;;;6.53;3.37;;;16.60;99.90;;;;;;5115931;28;20047;-70
2022/06/29 04:14:19;;;;;;;6.20;3.20;;;16.60;99.90;;;;;;5116028;28;20089;-70
2022/06/29 04:16:45;;;;;;;5.63;3.53;;;16.70;99.90;;;;;;5115860;28;20044;-70
2022/06/29 04:19:11;;;;;;;7.23;3.37;;;16.70;99.90;;;;;;5116039;28;20277;-70
2022/06/29 04:21:37;;;;;;;6.70;3.43;;;16.70;99.90;;;;;;5115824;28;20352;-70
2022/06/29 04:24:03;;;;;;;8.40;3.93;;;16.80;99.90;;;;;;5115946;28;20265;-70
2022/06/29 04:26:29;;;;;;;5.80;3.30;;;16.80;99.90;;;;;;5115867;28;20054;-71
2022/06/29 04:28:55;;;;;;;8.83;3.80;;;16.90;99.90;;;;;;5115980;28;20372;-70
2022/06/29 04:31:21;;;;;;;6.83;3.90;;;16.90;99.90;;;;;;5115829;28;20056;-70
2022/06/29 04:33:46;;;;;;;6.10;3.47;;;17.00;99.90;;;;;;5097267;28;20039;-70
2022/06/29 04:36:12;;;;;;;6.67;3.13;;;17.00;99.90;;;;;;5115542;28;20128;-70
2022/06/29 04:38:38;;;;;;;7.47;3.33;;;17.00;99.90;;;;;;5097076;28;20055;-70
2022/06/29 04:41:04;;;;;;;6.10;3.30;;;17.00;99.90;;;;;;5097693;28;20051;-70
2022/06/29 04:43:30;;;;;;;6.27;3.40;;;17.00;99.90;;;;;;5115519;28;20046;-70
2022/06/29 04:48:41;;;;;;;7.63;3.80;;;17.10;99.90;;;;;;5115032;28;20043;-70
2022/06/29 04:51:07;;;;;;;7.17;3.50;;;17.10;99.90;;;;;;5115259;28;20047;-70
2022/06/29 04:53:33;;;;;;;5.97;3.47;;;17.20;99.90;;;;;;5115047;28;20303;-70
2022/06/29 04:55:59;;;;;;;9.43;3.63;;;17.20;99.90;;;;;;5115267;28;20044;-70
2022/06/29 04:58:25;;;;;;;7.83;3.97;;;17.30;99.90;;;;;;5115445;28;20044;-70
2022/06/29 05:00:51;;;;;;;7.10;4.23;;;17.40;99.90;;;;;;5114994;28;20383;-70
2022/06/29 05:03:18;;;;;;;7.30;3.97;;;17.40;99.90;;;;;;5115110;28;20031;-70
2022/06/29 05:05:44;;;;;;;6.30;3.53;;;17.40;99.90;;;;;;5114828;28;20285;-70
2022/06/29 05:08:10;;;;;;;6.23;3.67;;;17.40;99.90;;;;;;5115099;28;20043;-70
2022/06/29 05:10:36;;;;;;;6.33;3.60;;;17.50;99.90;;;;;;5114831;28;20047;-70
2022/06/29 05:13:01;;;;;;;7.70;4.10;;;17.50;99.90;;;;;;5114862;28;20120;-70
2022/06/29 05:15:27;;;;;;;6.67;3.67;;;17.50;99.90;;;;;;5114898;28;20087;-70
2022/06/29 05:17:53;;;;;;;6.93;3.90;;;17.60;99.90;;;;;;5114675;28;20047;-70
2022/06/29 05:20:22;;;;;;;7.17;3.57;;;17.60;99.90;;;;;;5096642;28;20051;-70
2022/06/29 05:22:48;;;;;;;7.03;3.60;;;17.60;99.90;;;;;;5114565;28;20051;-70
2022/06/29 05:25:14;;;;;;;5.27;3.80;;;17.60;99.90;;;;;;5114688;28;20111;-70
2022/06/29 05:27:39;;;;;;;6.67;3.80;;;17.60;99.90;;;;;;5096355;28;20125;-70
2022/06/29 05:30:06;;;;;;;7.00;4.07;;;17.60;99.90;;;;;;5115015;28;20123;-70
2022/06/29 05:32:31;;;;;;;5.93;3.50;;;17.70;99.90;;;;;;5114593;28;20043;-70
2022/06/29 05:34:57;;;;;;;7.13;3.50;;;17.70;99.90;;;;;;5114244;28;20054;-70
2022/06/29 05:37:23;;;;;;;8.27;4.03;;;17.70;99.90;;;;;;5114659;28;20040;-70
2022/06/29 05:39:49;;;;;;;8.13;4.03;;;17.80;99.90;;;;;;5095967;28;20404;-70
2022/06/29 05:42:15;;;;;;;6.67;3.33;;;17.90;99.90;;;;;;5114595;28;20043;-70
2022/06/29 05:44:41;;;;;;;8.33;3.53;;;18.00;99.90;;;;;;5114129;28;20039;-70
2022/06/29 05:47:08;;;;;;;5.77;3.50;;;18.20;99.90;;;;;;5096157;28;20104;-70
2022/06/29 05:49:35;;;;;;;9.10;3.57;;;18.40;99.90;;;;;;5114373;28;20047;-70
2022/06/29 05:52:02;;;;;;;6.83;3.30;;;18.50;99.90;;;;;;5095858;28;20051;-70
2022/06/29 05:54:28;;;;;;;8.20;3.60;;;;;;;;;;5114383;28;20044;-70
2022/06/29 05:56:54;;;;;;;5.67;3.33;;;19.60;99.90;;;;;;5113941;28;20047;-70
2022/06/29 05:59:20;;;;;;;6.47;3.23;;;20.90;99.90;;;;;;5114266;28;20372;-70
2022/06/29 06:01:45;;;;;;;6.10;3.53;;;22.30;99.90;;;;;;5095468;28;20050;-70
2022/06/29 06:04:11;;;;;;;8.73;3.60;;;23.40;99.90;;;;;;5114034;28;20044;-70
2022/06/29 06:06:37;;;;;;;6.07;3.00;;;24.30;95.90;;;;;;5113779;28;20052;-70
2022/06/29 06:09:03;;;;;;;5.97;2.73;;;25.10;90.00;;;;;;5095599;28;20051;-70
2022/06/29 06:11:29;;;;;;;9.60;3.10;;;25.60;76.90;;;;;;5113919;28;20055;-70
2022/06/29 06:13:54;;;;;;;6.10;2.57;;;26.30;69.20;;;;;;5113553;28;20036;-71
2022/06/29 06:16:20;;;;;;;6.77;2.90;;;;;;;;;;5113947;28;20047;-71
2022/06/29 06:18:46;;;;;;;4.90;2.40;;;;;;;;;;5095492;28;20051;-70
2022/06/29 06:21:13;;;;;;;5.93;2.60;;;;;;;;;;5113720;28;20498;-71
2022/06/29 06:23:39;;;;;;;6.47;2.63;;;;;;;;;;5113738;28;20046;-71
2022/06/29 06:26:05;;;;;;;6.63;2.63;;;28.90;56.40;;;;;;5113486;28;20040;-70
2022/06/29 06:28:31;;;;;;;7.67;2.63;;;29.10;61.60;;;;;;5113665;28;20506;-71
2022/06/29 06:30:57;;;;;;;6.03;3.30;;;;;;;;;;5113505;28;20048;-70
2022/06/29 06:33:23;;;;;;;6.93;2.40;;;30.30;48.20;;;;;;5113539;28;20054;-71
2022/06/29 06:35:49;;;;;;;8.00;2.70;;;30.30;48.50;;;;;;5113382;28;20052;-71
2022/06/29 06:38:16;;;;;;;5.97;2.77;;;30.70;47.80;;;;;;5113750;28;20092;-71
2022/06/29 06:43:26;;;;;;;5.65;2.70;;;;;;;;;;5095768;28;20073;-70
2022/06/29 06:45:52;;;;;;;5.53;2.30;;;31.10;41.80;;;;;;5113270;28;20043;-71
2022/06/29 06:48:18;;;;;;;7.45;2.70;;;31.50;44.80;;;;;;5095504;28;20054;-71
2022/06/29 06:50:44;;;;;;;6.00;2.47;;;;;;;;;;5113127;28;20044;-71
2022/06/29 06:53:10;;;;;;;6.97;2.45;;;;;;;;;;5113382;28;20051;-71
2022/06/29 06:55:36;;;;;;;5.30;2.03;;;32.40;80.20;;;;;;5113319;28;20139;-71
2022/06/29 06:58:02;;;;;;;4.03;2.00;;;;;;;;;;5095097;28;20074;-71
2022/06/29 07:00:29;;;;;;;5.65;2.28;;;32.70;38.90;;;;;;5113359;28;20088;-71
2022/06/29 07:02:54;;;;;;;5.15;2.50;;;32.70;40.40;;;;;;5113130;28;20039;-71
2022/06/29 07:05:20;;;;;;;4.25;2.05;;;32.70;63.40;;;;;;5113231;28;20387;-71
2022/06/29 07:07:46;;;;;;;3.60;2.05;;;32.70;40.80;;;;;;5078375;28;20475;-73
2022/06/29 07:10:12;;;;;;;11.45;4.07;;;33.00;40.40;;;;;;5113367;28;20051;-70
2022/06/29 07:12:38;;;;;;;9.57;2.20;;;33.30;39.10;;;;;;5113173;28;20051;-70
2022/06/29 07:15:04;;;;;;;5.07;2.08;;;;;;;;;;5116537;28;20044;-70
2022/06/29 07:17:30;;;;;;;6.38;2.33;;;;;;;;;;5117476;28;20122;-70
2022/06/29 07:19:59;;;;;;;4.50;2.10;;;;;;;;;;5117039;28;20059;-71
2022/06/29 07:22:25;;;;;;;6.43;2.10;;;;;;;;;;5117289;28;20424;-70
2022/06/29 07:24:51;;;;;;;6.75;2.47;;;;;;;;;;5117004;28;20071;-70
2022/06/29 07:27:17;;;;;;;5.03;2.10;;;33.60;37.60;;;;;;5117036;28;20047;-70
2022/06/29 07:29:43;;;;;;;9.02;2.65;;;33.90;38.00;;;;;;5117000;28;20054;-70
2022/06/29 07:32:08;;;;;;;5.07;2.33;;;33.90;37.40;;;;;;5116655;28;20130;-70
2022/06/29 07:34:35;;;;;;;4.22;2.10;;;33.80;37.20;;;;;;5116852;28;20391;-70
2022/06/29 07:37:01;;;;;;;7.30;2.10;;;33.80;37.80;;;;;;5116729;28;20421;-70
2022/06/29 07:39:30;;;;;;;4.53;2.60;;;33.90;37.70;;;;;;5116934;28;20466;-70
2022/06/29 07:41:56;;;;;;;4.63;2.20;;;34.20;37.20;;;;;;5116567;28;20456;-70
2022/06/29 07:44:22;;;;;;;4.05;1.92;;;34.30;36.20;;;;;;5098606;28;20369;-70
2022/06/29 07:46:48;;;;;;;4.32;2.17;;;34.30;36.60;;;;;;5098594;28;20053;-70
2022/06/29 07:49:14;;;;;;;4.53;2.30;;;34.60;37.00;;;;;;5116246;28;20055;-70
2022/06/29 07:51:39;;;;;;;6.68;2.60;;;34.90;36.40;;;;;;5116574;28;20515;-70
2022/06/29 07:54:05;;;;;;;4.93;2.72;;;34.80;35.80;;;;;;5098125;28;20048;-70
2022/06/29 07:56:33;;;;;;;5.30;2.30;;;34.90;35.50;;;;;;5098339;28;20395;-70
2022/06/29 07:59:01;;;;;;;3.15;1.85;;;34.70;35.60;;;;;;5098258;28;20079;-70
2022/06/29 08:01:27;;;;;;;5.10;2.35;;;34.70;35.30;;;;;;5116060;28;20378;-70
2022/06/29 08:03:54;;;;;;;6.05;2.40;;;34.80;35.30;;;;;;5116014;28;20126;-71
2022/06/29 08:06:20;;;;;;;5.82;1.98;;;34.70;35.40;;;;;;5116500;28;20047;-70
2022/06/29 08:08:47;;;;;;;5.05;1.90;;;35.10;35.40;;;;;;5116212;28;20050;-70
2022/06/29 08:11:12;;;;;;;4.63;2.17;;;34.90;34.80;;;;;;5115948;28;20059;-70
2022/06/29 08:13:38;;;;;;;5.20;2.40;;;34.90;35.20;;;;;;5116027;28;20046;-70
2022/06/29 08:16:06;;;;;;;4.90;2.38;;;35.00;35.50;;;;;;5097666;28;20472;-70
2022/06/29 08:18:33;;;;;;;7.15;2.10;;;35.60;36.00;;;;;;5116121;28;20051;-70
2022/06/29 08:20:59;;;;;;;4.07;2.10;;;35.70;35.60;;;;;;5115940;28;20047;-70
2022/06/29 08:23:25;;;;;;;4.63;2.10;;;35.80;51.70;;;;;;5097849;28;20040;-70
2022/06/29 08:25:52;;;;;;;3.38;1.90;;;35.60;49.30;;;;;;5097124;28;20612;-70
2022/06/29 08:28:17;;;;;;;5.68;2.17;;;35.30;34.60;;;;;;5115697;28;20048;-70
2022/06/29 08:30:44;;;;;;;5.57;2.17;;;35.30;34.80;;;;;;5115916;28;20054;-70
2022/06/29 08:33:10;;;;;;;3.70;2.20;;;35.40;35.30;;;;;;5115475;28;20055;-70
2022/06/29 08:35:36;;;;;;;4.65;2.20;;;;;;;;;;5115700;28;20549;-70
2022/06/29 08:38:03;;;;;;;6.90;2.30;;;;;;;;;;5115470;28;20077;-71
2022/06/29 08:40:35;;;;;;;5.03;1.90;;;;;;;;;;5115631;28;20485;-70
2022/06/29 08:43:01;;;;;;;3.50;1.88;;;;;;;;;;5115520;28;20036;-70
2022/06/29 08:45:28;;;;;;;4.93;2.30;;;35.40;43.70;;;;;;5097534;28;20047;-70
2022/06/29 08:47:53;;;;;;;7.18;2.05;;;35.40;34.90;;;;;;5115508;28;20051;-70
2022/06/29 08:50:19;;;;;;;5.95;1.88;;;35.00;35.40;;;;;;5096672;28;20052;-70
2022/06/29 08:52:46;;;;;;;4.47;1.90;;;34.80;35.80;;;;;;5097408;28;20096;-70
2022/06/29 08:55:12;;;;;;;3.80;1.90;;;34.50;36.20;;;;;;5115141;28;20043;-70
2022/06/29 08:57:40;;;;;;;5.15;1.88;;;34.00;50.90;;;;;;5115337;28;20055;-70
2022/06/29 09:00:08;;;;;;;5.22;1.88;;;33.40;36.60;;;;;;5115116;28;20044;-70
2022/06/29 09:02:34;;;;;;;6.38;1.85;;;32.60;37.40;;;;;;5096964;28;20055;-70
2022/06/29 09:04:59;;;;;;;5.25;2.20;;;31.90;37.50;;;;;;5114916;28;20172;-70
2022/06/29 09:07:26;;;;;;;5.07;1.83;;;31.50;37.90;;;;;;5115349;28;20126;-70
2022/06/29 09:09:59;;;;;;;5.15;2.10;;;31.30;38.40;;;;;;5114802;28;20539;-70
2022/06/29 09:12:29;;;;;;;5.32;1.80;;;31.00;65.50;;;;;;5115186;28;20100;-70
2022/06/29 09:14:54;;;;;;;5.00;1.90;;;30.80;44.40;;;;;;5115107;28;20047;-70
2022/06/29 09:17:21;;;;;;;4.45;2.03;;;;;;;;;;5114668;28;20396;-70
2022/06/29 09:19:48;;;;;;;4.78;1.90;;;30.50;39.90;;;;;;5114834;28;20143;-70
2022/06/29 09:22:14;;;;;;;4.72;2.17;;;30.50;40.10;;;;;;5114517;28;20151;-70
2022/06/29 09:24:40;;;;;;;5.35;1.90;;;30.40;40.50;;;;;;5114807;28;20139;-70
2022/06/29 09:27:09;;;;;;;4.22;2.00;;;30.20;41.10;;;;;;5079379;28;20340;-70
2022/06/29 09:29:39;;;;;;;5.80;1.90;;;30.00;41.40;;;;;;5114522;28;20043;-70
2022/06/29 09:32:05;;;;;;;6.13;2.10;;;;;;;;;;5114323;28;20051;-70
2022/06/29 09:34:31;;;;;;;3.78;2.00;;;;;;;;;;5114468;28;20126;-69
2022/06/29 09:36:58;;;;;;;4.68;2.20;;;;;;;;;;5095560;28;20090;-70
2022/06/29 09:39:33;;;;;;;5.38;1.65;;;;;;;;;;5114264;28;20062;-70
2022/06/29 09:41:59;;;;;;;3.83;1.88;;;;;;;;;;5114439;28;20094;-70
2022/06/29 09:44:25;;;;;;;2.75;1.50;;;28.80;78.40;;;;;;5114189;28;20039;-69
2022/06/29 09:46:55;;;;;;;3.22;1.67;;;28.80;42.20;;;;;;5114414;28;20097;-69
2022/06/29 09:49:26;;;;;;;3.72;1.90;;;28.50;42.80;;;;;;5113816;28;20055;-69
2022/06/29 09:51:59;;;;;;;3.72;1.80;;;28.50;43.10;;;;;;5096205;28;20407;-69
2022/06/29 09:54:37;;;;;;;6.85;2.03;;;28.50;43.20;;;;;;5114087;28;20050;-69
2022/06/29 09:57:04;;;;;;;2.65;1.55;;;28.70;43.60;;;;;;5096068;28;20090;-69
2022/06/29 10:02:37;;;;;;;3.60;1.60;;;28.80;43.50;;;;;;5113925;28;20117;-69
2022/06/29 10:05:13;;;;;;;3.20;1.55;;;28.50;43.50;;;;;;5114078;28;20043;-69
2022/06/29 10:07:44;;;;;;;4.13;1.83;;;28.50;44.50;;;;;;5114335;28;20043;-69
2022/06/29 10:10:12;;;;;;;5.95;1.67;;;28.40;44.30;;;;;;5113873;28;20051;-69
2022/06/29 10:16:00;;;;;;;4.68;1.95;;;28.30;43.40;;;;;;5114112;28;20083;-69
2022/06/29 10:18:44;;;;;;;7.22;1.90;;;28.30;44.00;;;;;;5113514;28;20059;-69
2022/06/29 10:21:19;;;;;;;4.10;1.85;;;28.20;44.30;;;;;;5113601;28;20052;-69
2022/06/29 10:23:44;;;;;;;3.45;1.77;;;28.30;43.70;;;;;;5113912;28;20049;-69
2022/06/29 10:26:32;;;;;;;5.03;1.80;;;28.20;43.80;;;;;;5113599;28;20055;-70
2022/06/29 10:29:09;;;;;;;5.28;1.80;;;28.20;44.30;;;;;;5113838;28;20051;-69
2022/06/29 10:31:54;;;;;;;4.03;1.58;;;28.30;44.50;;;;;;5113646;28;20488;-69
2022/06/29 10:34:31;;;;;;;5.75;1.60;;;28.40;43.70;;;;;;5113394;28;20110;-69
2022/06/29 10:37:02;;;;;;;9.90;1.65;;;28.30;44.20;;;;;;5113452;28;20104;-69
2022/06/29 10:39:48;;;;;;;4.07;2.00;;;28.30;44.10;;;;;;5113348;28;20051;-69
2022/06/29 10:45:15;;;;;;;3.97;1.87;;;28.20;44.40;;;;;;5113534;28;20083;-69
2022/06/29 10:47:56;;;;;;;8.23;1.95;;;28.20;45.00;;;;;;5115170;28;20134;-69
2022/06/29 10:50:26;;;;;;;6.23;2.00;;;28.10;44.50;;;;;;5117715;28;20059;-69
2022/06/29 10:52:54;;;;;;;3.67;1.80;;;28.00;44.80;;;;;;5117367;28;20425;-69
2022/06/29 10:55:21;;;;;;;3.53;1.70;;;27.90;44.50;;;;;;5099395;28;20497;-69
2022/06/29 10:57:47;;;;;;;5.23;2.10;;;27.80;44.30;;;;;;5117642;28;20058;-69
2022/06/29 11:00:31;;;;;;;7.30;1.80;;;27.70;50.00;;;;;;5117509;28;20452;-69
2022/06/29 11:02:57;;;;;;;5.28;1.73;;;27.80;77.20;;;;;;5117490;28;20126;-69
2022/06/29 11:05:23;;;;;;;4.33;1.80;;;27.70;76.10;;;;;;5117273;28;20387;-69
2022/06/29 11:13:29;;;;;;;4.43;1.90;;;27.70;77.60;;;;;;5117127;28;20136;-69
2022/06/29 11:16:00;;;;;;;3.07;1.70;;;27.80;76.90;;;;;;5099610;28;20054;-69
2022/06/29 11:18:28;;;;;;;3.10;1.60;;;27.70;76.80;;;;;;5117080;28;20043;-69
2022/06/29 11:21:02;;;;;;;6.70;1.70;;;27.80;76.10;;;;;;5117216;28;20054;-69
2022/06/29 11:23:28;;;;;;;4.43;1.63;;;27.80;75.90;;;;;;5117078;28;20074;-69
2022/06/29 11:25:56;;;;;;;4.57;1.50;;;27.80;75.50;;;;;;5099400;28;20051;-69
2022/06/29 11:28:30;;;;;;;6.27;1.70;;;27.90;75.00;;;;;;5116712;28;20047;-69
2022/06/29 11:31:05;;;;;;;5.20;2.25;;;27.90;75.20;;;;;;5116938;28;20048;-69
2022/06/29 11:33:46;;;;;;;5.70;1.80;;;27.90;74.50;;;;;;5116737;28;20126;-69
2022/06/29 11:36:19;;;;;;;4.77;1.63;;;27.90;74.70;;;;;;5117064;28;20110;-69
2022/06/29 11:38:55;;;;;;;6.70;1.60;;;27.90;74.60;;;;;;5117316;28;20501;-69
2022/06/29 11:43:03;;;;;;;5.80;1.63;;;27.90;74.10;;;;;;5116665;28;20073;-69
2022/06/29 11:44:21;;;;;;;3.87;1.80;;;28.00;74.40;;;;;;5116395;28;20491;-69
2022/06/29 11:46:47;;;;;;;3.50;1.50;;;27.90;75.00;;;;;;5098843;28;20056;-69
2022/06/29 11:49:36;;;;;;;4.87;1.60;;;27.90;74.60;;;;;;5116761;28;20066;-69
2022/06/29 11:52:04;;;;;;;3.73;1.43;;;27.90;73.60;;;;;;5116292;28;20048;-69
2022/06/29 11:55:00;;;;;;;4.73;1.43;;;28.00;72.90;;;;;;5116249;28;20475;-70
2022/06/29 11:57:26;;;;;;;4.60;1.57;;;28.00;73.00;;;;;;5116774;28;20114;-70
2022/06/29 12:00:02;;;;;;;3.57;1.60;;;28.00;73.30;;;;;;5115499;28;20091;-70
2022/06/29 12:02:32;;;;;;;3.17;1.50;;;28.00;72.80;;;;;;5116369;28;20079;-70
2022/06/29 12:05:00;;;;;;;2.50;1.50;;;28.00;72.40;;;;;;5116629;28;20399;-70
2022/06/29 12:07:27;;;;;;;5.83;1.83;;;28.20;72.20;;;;;;5116159;28;20054;-70
2022/06/29 12:09:53;;;;;;;3.63;1.60;;;28.00;72.30;;;;;;5116200;28;20051;-70
2022/06/29 12:12:19;;;;;;;4.03;2.03;;;28.00;72.40;;;;;;5097960;28;20043;-70
2022/06/29 12:14:44;;;;;;;4.07;1.50;;;28.00;72.10;;;;;;5116266;28;20058;-70
2022/06/29 12:17:13;;;;;;;3.20;1.53;;;27.90;72.20;;;;;;5116185;28;20474;-70
2022/06/29 12:19:39;;;;;;;5.00;1.70;;;27.90;71.80;;;;;;5115951;28;20571;-70
2022/06/29 12:22:05;;;;;;;9.97;2.47;;;27.80;72.40;;;;;;5115993;28;20067;-70
2022/06/29 12:24:31;;;;;;;6.30;1.73;;;27.70;72.20;;;;;;5115661;28;20092;-70
2022/06/29 12:26:56;;;;;;;5.87;1.97;;;27.80;72.50;;;;;;5116056;28;20051;-70
2022/06/29 12:29:22;;;;;;;4.47;2.07;;;27.70;72.80;;;;;;5115700;28;20159;-70
2022/06/29 12:31:48;;;;;;;3.63;1.90;;;27.80;73.10;;;;;;5115935;28;20433;-70
2022/06/29 12:34:15;;;;;;;7.03;1.83;;;27.80;72.90;;;;;;5115736;28;20467;-70
2022/06/29 12:36:41;;;;;;;3.33;1.80;;;27.80;72.60;;;;;;5115502;28;20104;-70
2022/06/29 12:39:07;;;;;;;4.40;1.60;;;27.70;72.60;;;;;;5097593;28;20156;-69
2022/06/29 12:41:36;;;;;;;4.10;1.87;;;27.70;73.20;;;;;;5115496;28;20062;-70
2022/06/29 12:44:03;;;;;;;3.73;1.60;;;27.70;73.00;;;;;;5115621;28;20044;-69
2022/06/29 12:46:32;;;;;;;4.30;1.73;;;27.70;72.70;;;;;;5115296;28;20058;-70
2022/06/29 12:49:00;;;;;;;6.70;1.70;;;27.80;72.70;;;;;;5115489;28;20052;-70
2022/06/29 12:51:26;;;;;;;3.23;1.70;;;27.90;72.50;;;;;;5097359;28;20051;-70
2022/06/29 12:53:52;;;;;;;3.57;1.70;;;27.90;72.50;;;;;;5115322;28;20048;-69
2022/06/29 12:56:18;;;;;;;5.90;2.20;;;27.90;72.90;;;;;;5115427;28;20134;-69
2022/06/29 12:58:44;;;;;;;4.37;1.80;;;27.80;72.90;;;;;;5115184;28;20048;-70
2022/06/29 13:01:10;;;;;;;3.70;1.77;;;;;;;;;;5115379;28;20047;-69
2022/06/29 13:03:36;;;;;;;4.60;1.70;;;;;;;;;;5097091;28;20544;-70
2022/06/29 13:06:02;;;;;;;4.63;1.60;;;;;;;;;;5115240;28;20058;-70
2022/06/29 13:08:28;;;;;;;3.43;1.70;;;;;;;;;;5114872;28;20050;-70
2022/06/29 13:10:54;;;;;;;5.27;2.00;;;;;;;;;;5114928;28;20143;-70
2022/06/29 13:13:20;;;;;;;3.87;1.70;;;;;;;;;;5114953;28;20388;-70
2022/06/29 13:15:46;;;;;;;7.37;2.10;;;;;;;;;;5114734;28;20047;-70
2022/06/29 13:18:13;;;;;;;4.80;2.20;;;;;;;;;;5114958;28;20487;-70
2022/06/29 13:20:40;;;;;;;4.80;2.30;;;;;;;;;;5114672;28;20123;-70
2022/06/29 13:23:06;;;;;;;3.47;2.13;;;;;;;;;;5114803;28;20464;-70